sensor_id;sensor_type;location;lat;lon;timestamp;temperature;humidity
4993;DHT22;2514;53.524;10.166;2022-09-21T00:00:32;7.00;99.90
4993;DHT22;2514;53.524;10.166;2022-09-21T00:02:59;7.00;99.90
4993;DHT22;2514;53.524;10.166;2022-09-21T00:05:26;7.00;99.90
4993;DHT22;2514;53.524;10.166;2022-09-21T00:07:55;7.00;99.90
4993;DHT22;2514;53.524;10.166;2022-09-21T00:10:21;6.80;99.90
4993;DHT22;2514;53.524;10.166;2022-09-21T00:12:48;6.70;99.90
4993;DHT22;2514;53.524;10.166;2022-09-21T00:15:16;6.70;99.90
4993;DHT22;2514;53.524;10.166;2022-09-21T00:17:43;6.70;99.90
4993;DHT22;2514;53.524;10.166;2022-09-21T00:20:12;6.70;99.90
4993;DHT22;2514;53.524;10.166;2022-09-21T00:22:40;6.70;99.90
4993;DHT22;2514;53.524;10.166;2022-09-21T00:25:09;6.70;99.90
4993;DHT22;2514;53.524;10.166;2022-09-21T00:27:36;6.70;99.90
4993;DHT22;2514;53.524;10.166;2022-09-21T00:30:05;6.50;99.90
4993;DHT22;2514;53.524;10.166;2022-09-21T00:32:35;6.40;99.90
4993;DHT22;2514;53.524;10.166;2022-09-21T00:35:05;6.40;99.90
4993;DHT22;2514;53.524;10.166;2022-09-21T00:37:32;6.50;99.90
4993;DHT22;2514;53.524;10.166;2022-09-21T00:40:00;6.60;99.90
4993;DHT22;2514;53.524;10.166;2022-09-21T00:42:30;6.60;99.90
4993;DHT22;2514;53.524;10.166;2022-09-21T00:44:59;6.60;99.90
4993;DHT22;2514;53.524;10.166;2022-09-21T00:47:30;6.60;99.90
4993;DHT22;2514;53.524;10.166;2022-09-21T00:50:03;6.60;99.90
4993;DHT22;2514;53.524;10.166;2022-09-21T00:52:36;6.60;99.90
4993;DHT22;2514;53.524;10.166;2022-09-21T00:55:08;6.60;99.90
4993;DHT22;2514;53.524;10.166;2022-09-21T00:57:38;6.50;99.90
4993;DHT22;2514;53.524;10.166;2022-09-21T01:00:07;6.60;99.90
4993;DHT22;2514;53.524;10.166;2022-09-21T01:02:36;6.50;99.90
4993;DHT22;2514;53.524;10.166;2022-09-21T01:05:05;6.50;99.90
4993;DHT22;2514;53.524;10.166;2022-09-21T01:07:36;6.50;99.90
4993;DHT22;2514;53.524;10.166;2022-09-21T01:10:06;6.60;99.90
4993;DHT22;2514;53.524;10.166;2022-09-21T01:12:49;6.60;99.90
4993;DHT22;2514;53.524;10.166;2022-09-21T01:15:28;6.60;99.90
4993;DHT22;2514;53.524;10.166;2022-09-21T01:18:10;6.50;99.90
4993;DHT22;2514;53.524;10.166;2022-09-21T01:21:10;6.50;99.90
4993;DHT22;2514;53.524;10.166;2022-09-21T01:24:06;6.40;99.90
4993;DHT22;2514;53.524;10.166;2022-09-21T01:27:02;6.10;99.90
4993;DHT22;2514;53.524;10.166;2022-09-21T01:29:42;6.00;99.90
4993;DHT22;2514;53.524;10.166;2022-09-21T01:32:15;6.00;99.90
4993;DHT22;2514;53.524;10.166;2022-09-21T01:34:48;6.00;99.90
4993;DHT22;2514;53.524;10.166;2022-09-21T01:37:21;6.00;99.90
4993;DHT22;2514;53.524;10.166;2022-09-21T01:39:53;6.00;99.90
4993;DHT22;2514;53.524;10.166;2022-09-21T01:42:24;6.00;99.90
4993;DHT22;2514;53.524;10.166;2022-09-21T01:44:55;6.00;99.90
4993;DHT22;2514;53.524;10.166;2022-09-21T01:47:24;6.00;99.90
4993;DHT22;2514;53.524;10.166;2022-09-21T01:49:54;6.00;99.90
4993;DHT22;2514;53.524;10.166;2022-09-21T01:52:30;6.00;99.90
4993;DHT22;2514;53.524;10.166;2022-09-21T01:55:03;6.00;99.90
4993;DHT22;2514;53.524;10.166;2022-09-21T01:57:37;6.00;99.90
4993;DHT22;2514;53.524;10.166;2022-09-21T02:00:09;6.10;99.90
4993;DHT22;2514;53.524;10.166;2022-09-21T02:02:40;6.10;99.90
4993;DHT22;2514;53.524;10.166;2022-09-21T02:05:10;6.10;99.90
4993;DHT22;2514;53.524;10.166;2022-09-21T02:07:37;6.10;99.90
4993;DHT22;2514;53.524;10.166;2022-09-21T02:10:07;6.10;99.90
4993;DHT22;2514;53.524;10.166;2022-09-21T02:12:36;6.10;99.90
4993;DHT22;2514;53.524;10.166;2022-09-21T02:15:04;6.10;99.90
4993;DHT22;2514;53.524;10.166;2022-09-21T02:17:40;6.20;99.90
4993;DHT22;2514;53.524;10.166;2022-09-21T02:20:18;6.10;99.90
4993;DHT22;2514;53.524;10.166;2022-09-21T02:23:01;6.00;99.90
4993;DHT22;2514;53.524;10.166;2022-09-21T02:25:40;5.90;99.90
4993;DHT22;2514;53.524;10.166;2022-09-21T02:28:20;5.80;99.90
4993;DHT22;2514;53.524;10.166;2022-09-21T02:31:00;5.80;99.90
4993;DHT22;2514;53.524;10.166;2022-09-21T02:33:42;5.80;99.90
4993;DHT22;2514;53.524;10.166;2022-09-21T02:36:20;5.80;99.90
4993;DHT22;2514;53.524;10.166;2022-09-21T02:38:57;5.80;99.90
4993;DHT22;2514;53.524;10.166;2022-09-21T02:41:36;5.70;99.90
4993;DHT22;2514;53.524;10.166;2022-09-21T02:44:11;5.60;99.90
4993;DHT22;2514;53.524;10.166;2022-09-21T02:46:45;5.50;99.90
4993;DHT22;2514;53.524;10.166;2022-09-21T02:49:23;5.60;99.90
4993;DHT22;2514;53.524;10.166;2022-09-21T02:51:57;5.50;99.90
4993;DHT22;2514;53.524;10.166;2022-09-21T02:54:28;5.50;99.90
4993;DHT22;2514;53.524;10.166;2022-09-21T02:56:57;5.50;99.90
4993;DHT22;2514;53.524;10.166;2022-09-21T02:59:25;5.50;99.90
4993;DHT22;2514;53.524;10.166;2022-09-21T03:01:53;5.50;99.90
4993;DHT22;2514;53.524;10.166;2022-09-21T03:04:22;5.50;99.90
4993;DHT22;2514;53.524;10.166;2022-09-21T03:06:50;5.50;99.90
4993;DHT22;2514;53.524;10.166;2022-09-21T03:09:17;5.60;99.90
4993;DHT22;2514;53.524;10.166;2022-09-21T03:11:45;5.60;99.90
4993;DHT22;2514;53.524;10.166;2022-09-21T03:14:13;5.60;99.90
4993;DHT22;2514;53.524;10.166;2022-09-21T03:16:41;5.60;99.90
4993;DHT22;2514;53.524;10.166;2022-09-21T03:19:09;5.50;99.90
4993;DHT22;2514;53.524;10.166;2022-09-21T03:21:38;5.50;99.90
4993;DHT22;2514;53.524;10.166;2022-09-21T03:24:05;5.40;99.90
4993;DHT22;2514;53.524;10.166;2022-09-21T03:26:32;5.40;99.90
4993;DHT22;2514;53.524;10.166;2022-09-21T03:29:00;5.40;99.90
4993;DHT22;2514;53.524;10.166;2022-09-21T03:31:28;5.40;99.90
4993;DHT22;2514;53.524;10.166;2022-09-21T03:33:55;5.40;99.90
4993;DHT22;2514;53.524;10.166;2022-09-21T03:36:22;5.40;99.90
4993;DHT22;2514;53.524;10.166;2022-09-21T03:38:51;5.40;99.90
4993;DHT22;2514;53.524;10.166;2022-09-21T03:41:18;5.40;99.90
4993;DHT22;2514;53.524;10.166;2022-09-21T03:43:45;5.30;99.90
4993;DHT22;2514;53.524;10.166;2022-09-21T03:46:12;5.30;99.90
4993;DHT22;2514;53.524;10.166;2022-09-21T03:48:39;5.30;99.90
4993;DHT22;2514;53.524;10.166;2022-09-21T03:51:06;5.40;99.90
4993;DHT22;2514;53.524;10.166;2022-09-21T03:53:33;5.40;99.90
4993;DHT22;2514;53.524;10.166;2022-09-21T03:56:02;5.40;99.90
4993;DHT22;2514;53.524;10.166;2022-09-21T03:58:29;5.40;99.90
4993;DHT22;2514;53.524;10.166;2022-09-21T04:01:00;5.40;99.90
4993;DHT22;2514;53.524;10.166;2022-09-21T04:03:28;5.40;99.90
4993;DHT22;2514;53.524;10.166;2022-09-21T04:05:55;5.40;99.90
4993;DHT22;2514;53.524;10.166;2022-09-21T04:08:22;5.40;99.90
4993;DHT22;2514;53.524;10.166;2022-09-21T04:10:49;5.30;99.90
4993;DHT22;2514;53.524;10.166;2022-09-21T04:13:17;5.30;99.90
4993;DHT22;2514;53.524;10.166;2022-09-21T04:15:44;5.10;99.90
4993;DHT22;2514;53.524;10.166;2022-09-21T04:18:11;5.10;99.90
4993;DHT22;2514;53.524;10.166;2022-09-21T04:20:38;5.10;99.90
4993;DHT22;2514;53.524;10.166;2022-09-21T04:23:06;5.00;99.90
4993;DHT22;2514;53.524;10.166;2022-09-21T04:25:33;5.00;99.90
4993;DHT22;2514;53.524;10.166;2022-09-21T04:28:01;5.00;99.90
4993;DHT22;2514;53.524;10.166;2022-09-21T04:30:29;5.00;99.90
4993;DHT22;2514;53.524;10.166;2022-09-21T04:32:58;5.00;99.90
4993;DHT22;2514;53.524;10.166;2022-09-21T04:35:25;5.00;99.90
4993;DHT22;2514;53.524;10.166;2022-09-21T04:37:53;5.00;99.90
4993;DHT22;2514;53.524;10.166;2022-09-21T04:40:21;5.00;99.90
4993;DHT22;2514;53.524;10.166;2022-09-21T04:42:50;5.00;99.90
4993;DHT22;2514;53.524;10.166;2022-09-21T04:45:18;5.00;99.90
4993;DHT22;2514;53.524;10.166;2022-09-21T04:47:46;5.00;99.90
4993;DHT22;2514;53.524;10.166;2022-09-21T04:50:14;5.10;99.90
4993;DHT22;2514;53.524;10.166;2022-09-21T04:52:41;5.20;99.90
4993;DHT22;2514;53.524;10.166;2022-09-21T04:55:08;5.20;99.90
4993;DHT22;2514;53.524;10.166;2022-09-21T04:57:35;5.10;99.90
4993;DHT22;2514;53.524;10.166;2022-09-21T05:00:03;5.10;99.90
4993;DHT22;2514;53.524;10.166;2022-09-21T05:02:31;5.10;99.90
4993;DHT22;2514;53.524;10.166;2022-09-21T05:04:59;5.10;99.90
4993;DHT22;2514;53.524;10.166;2022-09-21T05:07:26;5.00;99.90
4993;DHT22;2514;53.524;10.166;2022-09-21T05:09:53;5.00;99.90
4993;DHT22;2514;53.524;10.166;2022-09-21T05:12:28;4.90;99.90
4993;DHT22;2514;53.524;10.166;2022-09-21T05:14:55;4.90;99.90
4993;DHT22;2514;53.524;10.166;2022-09-21T05:17:23;4.90;99.90
4993;DHT22;2514;53.524;10.166;2022-09-21T05:19:50;4.90;99.90
4993;DHT22;2514;53.524;10.166;2022-09-21T05:22:19;4.90;99.90
4993;DHT22;2514;53.524;10.166;2022-09-21T05:24:46;4.90;99.90
4993;DHT22;2514;53.524;10.166;2022-09-21T05:27:13;5.00;99.90
4993;DHT22;2514;53.524;10.166;2022-09-21T05:29:41;5.00;99.90
4993;DHT22;2514;53.524;10.166;2022-09-21T05:32:13;4.90;99.90
4993;DHT22;2514;53.524;10.166;2022-09-21T05:34:49;4.80;99.90
4993;DHT22;2514;53.524;10.166;2022-09-21T05:37:36;4.80;99.90
4993;DHT22;2514;53.524;10.166;2022-09-21T05:40:10;4.90;99.90
4993;DHT22;2514;53.524;10.166;2022-09-21T05:42:39;4.80;99.90
4993;DHT22;2514;53.524;10.166;2022-09-21T05:45:11;4.90;99.90
4993;DHT22;2514;53.524;10.166;2022-09-21T05:47:48;4.90;99.90
4993;DHT22;2514;53.524;10.166;2022-09-21T05:50:29;5.00;99.90
4993;DHT22;2514;53.524;10.166;2022-09-21T05:53:14;5.10;99.90
4993;DHT22;2514;53.524;10.166;2022-09-21T05:55:55;5.20;99.90
4993;DHT22;2514;53.524;10.166;2022-09-21T05:58:30;5.30;99.90
4993;DHT22;2514;53.524;10.166;2022-09-21T06:01:15;5.40;99.90
4993;DHT22;2514;53.524;10.166;2022-09-21T06:03:47;5.60;99.90
4993;DHT22;2514;53.524;10.166;2022-09-21T06:06:15;5.70;99.90
4993;DHT22;2514;53.524;10.166;2022-09-21T06:08:44;5.80;99.90
4993;DHT22;2514;53.524;10.166;2022-09-21T06:11:11;5.90;99.90
4993;DHT22;2514;53.524;10.166;2022-09-21T06:13:39;5.90;99.90
4993;DHT22;2514;53.524;10.166;2022-09-21T06:16:06;6.00;99.90
4993;DHT22;2514;53.524;10.166;2022-09-21T06:18:36;6.20;99.90
4993;DHT22;2514;53.524;10.166;2022-09-21T06:21:04;6.30;99.90
4993;DHT22;2514;53.524;10.166;2022-09-21T06:23:31;6.40;99.90
4993;DHT22;2514;53.524;10.166;2022-09-21T06:26:00;6.60;99.90
4993;DHT22;2514;53.524;10.166;2022-09-21T06:28:27;6.70;99.90
4993;DHT22;2514;53.524;10.166;2022-09-21T06:30:54;6.90;99.90
4993;DHT22;2514;53.524;10.166;2022-09-21T06:33:22;7.00;99.90
4993;DHT22;2514;53.524;10.166;2022-09-21T06:35:54;7.20;99.90
4993;DHT22;2514;53.524;10.166;2022-09-21T06:38:22;7.30;99.90
4993;DHT22;2514;53.524;10.166;2022-09-21T06:40:51;7.30;99.90
4993;DHT22;2514;53.524;10.166;2022-09-21T06:43:19;7.40;99.90
4993;DHT22;2514;53.524;10.166;2022-09-21T06:45:52;7.60;99.90
4993;DHT22;2514;53.524;10.166;2022-09-21T06:48:20;7.80;99.90
4993;DHT22;2514;53.524;10.166;2022-09-21T06:50:48;7.90;99.90
4993;DHT22;2514;53.524;10.166;2022-09-21T06:53:15;7.90;99.90
4993;DHT22;2514;53.524;10.166;2022-09-21T06:55:42;8.00;99.90
4993;DHT22;2514;53.524;10.166;2022-09-21T06:58:09;8.20;99.90
4993;DHT22;2514;53.524;10.166;2022-09-21T07:00:38;8.30;99.90
4993;DHT22;2514;53.524;10.166;2022-09-21T07:03:05;8.30;99.90
4993;DHT22;2514;53.524;10.166;2022-09-21T07:05:33;8.50;99.90
4993;DHT22;2514;53.524;10.166;2022-09-21T07:08:01;8.60;99.90
4993;DHT22;2514;53.524;10.166;2022-09-21T07:10:28;8.60;99.90
4993;DHT22;2514;53.524;10.166;2022-09-21T07:12:55;8.70;99.90
4993;DHT22;2514;53.524;10.166;2022-09-21T07:15:22;8.80;99.90
4993;DHT22;2514;53.524;10.166;2022-09-21T07:17:51;8.90;99.90
4993;DHT22;2514;53.524;10.166;2022-09-21T07:20:18;9.00;99.90
4993;DHT22;2514;53.524;10.166;2022-09-21T07:22:45;9.10;99.90
4993;DHT22;2514;53.524;10.166;2022-09-21T07:25:12;9.20;99.90
4993;DHT22;2514;53.524;10.166;2022-09-21T07:27:40;9.40;99.90
4993;DHT22;2514;53.524;10.166;2022-09-21T07:30:08;9.50;99.90
4993;DHT22;2514;53.524;10.166;2022-09-21T07:32:36;9.70;99.90
4993;DHT22;2514;53.524;10.166;2022-09-21T07:35:05;9.80;99.90
4993;DHT22;2514;53.524;10.166;2022-09-21T07:37:32;9.90;99.90
4993;DHT22;2514;53.524;10.166;2022-09-21T07:40:00;10.00;99.90
4993;DHT22;2514;53.524;10.166;2022-09-21T07:42:30;10.10;99.90
4993;DHT22;2514;53.524;10.166;2022-09-21T07:44:57;10.40;99.90
4993;DHT22;2514;53.524;10.166;2022-09-21T07:47:27;11.00;99.90
4993;DHT22;2514;53.524;10.166;2022-09-21T07:49:54;12.60;99.90
4993;DHT22;2514;53.524;10.166;2022-09-21T07:52:22;14.20;99.90
4993;DHT22;2514;53.524;10.166;2022-09-21T07:54:49;15.30;99.90
4993;DHT22;2514;53.524;10.166;2022-09-21T07:57:16;17.10;99.90
4993;DHT22;2514;53.524;10.166;2022-09-21T08:00:02;18.90;99.90
4993;DHT22;2514;53.524;10.166;2022-09-21T08:02:30;20.40;99.90
4993;DHT22;2514;53.524;10.166;2022-09-21T08:04:57;20.50;99.90
4993;DHT22;2514;53.524;10.166;2022-09-21T08:07:25;20.60;99.90
4993;DHT22;2514;53.524;10.166;2022-09-21T08:09:53;21.00;99.90
4993;DHT22;2514;53.524;10.166;2022-09-21T08:12:20;21.50;99.90
4993;DHT22;2514;53.524;10.166;2022-09-21T08:14:47;22.70;99.90
4993;DHT22;2514;53.524;10.166;2022-09-21T08:17:15;22.90;49.50
4993;DHT22;2514;53.524;10.166;2022-09-21T08:19:42;22.90;1.00
4993;DHT22;2514;53.524;10.166;2022-09-21T08:22:09;23.00;1.00
4993;DHT22;2514;53.524;10.166;2022-09-21T08:24:38;23.40;1.00
4993;DHT22;2514;53.524;10.166;2022-09-21T08:27:09;23.80;1.00
4993;DHT22;2514;53.524;10.166;2022-09-21T08:29:36;23.80;1.00
4993;DHT22;2514;53.524;10.166;2022-09-21T08:32:03;22.70;1.00
4993;DHT22;2514;53.524;10.166;2022-09-21T08:34:30;22.70;1.00
4993;DHT22;2514;53.524;10.166;2022-09-21T08:36:57;23.20;1.00
4993;DHT22;2514;53.524;10.166;2022-09-21T08:39:24;23.50;1.00
4993;DHT22;2514;53.524;10.166;2022-09-21T08:42:01;23.60;1.00
4993;DHT22;2514;53.524;10.166;2022-09-21T08:44:38;23.70;1.00
4993;DHT22;2514;53.524;10.166;2022-09-21T08:47:11;24.00;1.00
4993;DHT22;2514;53.524;10.166;2022-09-21T08:49:46;23.50;1.00
4993;DHT22;2514;53.524;10.166;2022-09-21T08:52:17;23.50;1.00
4993;DHT22;2514;53.524;10.166;2022-09-21T08:54:50;23.80;1.00
4993;DHT22;2514;53.524;10.166;2022-09-21T08:57:21;24.00;1.00
4993;DHT22;2514;53.524;10.166;2022-09-21T08:59:51;23.70;1.00
4993;DHT22;2514;53.524;10.166;2022-09-21T09:02:32;23.50;1.00
4993;DHT22;2514;53.524;10.166;2022-09-21T09:05:16;24.00;1.00
4993;DHT22;2514;53.524;10.166;2022-09-21T09:08:07;23.00;1.00
4993;DHT22;2514;53.524;10.166;2022-09-21T09:10:50;24.50;1.00
4993;DHT22;2514;53.524;10.166;2022-09-21T09:13:59;25.00;1.00
4993;DHT22;2514;53.524;10.166;2022-09-21T09:16:38;25.60;1.00
4993;DHT22;2514;53.524;10.166;2022-09-21T09:19:19;25.40;1.00
4993;DHT22;2514;53.524;10.166;2022-09-21T09:21:48;25.90;1.00
4993;DHT22;2514;53.524;10.166;2022-09-21T09:24:18;25.20;1.00
4993;DHT22;2514;53.524;10.166;2022-09-21T09:27:00;25.20;1.00
4993;DHT22;2514;53.524;10.166;2022-09-21T09:29:39;24.50;1.00
4993;DHT22;2514;53.524;10.166;2022-09-21T09:32:13;24.50;1.00
4993;DHT22;2514;53.524;10.166;2022-09-21T09:34:43;26.90;1.00
4993;DHT22;2514;53.524;10.166;2022-09-21T09:37:15;27.50;99.90
4993;DHT22;2514;53.524;10.166;2022-09-21T09:39:47;26.70;99.90
4993;DHT22;2514;53.524;10.166;2022-09-21T09:42:32;26.20;99.90
4993;DHT22;2514;53.524;10.166;2022-09-21T09:48:34;27.40;99.90
4993;DHT22;2514;53.524;10.166;2022-09-21T09:51:09;28.90;99.90
4993;DHT22;2514;53.524;10.166;2022-09-21T09:53:37;28.70;99.90
4993;DHT22;2514;53.524;10.166;2022-09-21T09:56:05;27.00;99.90
4993;DHT22;2514;53.524;10.166;2022-09-21T09:58:39;26.50;99.90
4993;DHT22;2514;53.524;10.166;2022-09-21T10:01:39;27.00;99.90
4993;DHT22;2514;53.524;10.166;2022-09-21T10:04:09;25.20;99.90
4993;DHT22;2514;53.524;10.166;2022-09-21T10:06:37;26.20;99.90
4993;DHT22;2514;53.524;10.166;2022-09-21T10:09:19;26.30;99.90
4993;DHT22;2514;53.524;10.166;2022-09-21T10:11:50;25.10;99.90
4993;DHT22;2514;53.524;10.166;2022-09-21T10:14:21;24.30;99.60
4993;DHT22;2514;53.524;10.166;2022-09-21T10:16:51;25.60;99.90
4993;DHT22;2514;53.524;10.166;2022-09-21T10:19:22;25.40;99.90
4993;DHT22;2514;53.524;10.166;2022-09-21T10:21:55;25.00;99.90
4993;DHT22;2514;53.524;10.166;2022-09-21T10:24:25;25.50;99.90
4993;DHT22;2514;53.524;10.166;2022-09-21T10:27:00;23.70;1.00
4993;DHT22;2514;53.524;10.166;2022-09-21T10:29:31;22.00;1.00
4993;DHT22;2514;53.524;10.166;2022-09-21T10:32:22;21.00;1.00
4993;DHT22;2514;53.524;10.166;2022-09-21T10:35:12;20.90;1.00
4993;DHT22;2514;53.524;10.166;2022-09-21T10:37:43;20.00;1.00
4993;DHT22;2514;53.524;10.166;2022-09-21T10:40:25;19.10;1.00
4993;DHT22;2514;53.524;10.166;2022-09-21T10:42:57;18.50;99.90
4993;DHT22;2514;53.524;10.166;2022-09-21T10:45:26;18.20;99.90
4993;DHT22;2514;53.524;10.166;2022-09-21T10:47:57;18.00;99.90
4993;DHT22;2514;53.524;10.166;2022-09-21T10:50:28;19.60;1.00
4993;DHT22;2514;53.524;10.166;2022-09-21T10:53:01;21.40;1.00
4993;DHT22;2514;53.524;10.166;2022-09-21T10:55:38;23.20;1.00
4993;DHT22;2514;53.524;10.166;2022-09-21T10:58:08;24.10;1.00
4993;DHT22;2514;53.524;10.166;2022-09-21T11:00:41;24.60;1.00
4993;DHT22;2514;53.524;10.166;2022-09-21T11:03:32;23.70;1.00
4993;DHT22;2514;53.524;10.166;2022-09-21T11:06:10;23.80;1.00
4993;DHT22;2514;53.524;10.166;2022-09-21T11:08:43;24.60;1.00
4993;DHT22;2514;53.524;10.166;2022-09-21T11:11:34;24.00;1.00
4993;DHT22;2514;53.524;10.166;2022-09-21T11:14:24;21.60;1.00
4993;DHT22;2514;53.524;10.166;2022-09-21T11:16:58;22.00;1.00
4993;DHT22;2514;53.524;10.166;2022-09-21T11:19:34;23.30;1.00
4993;DHT22;2514;53.524;10.166;2022-09-21T11:22:06;23.80;1.00
4993;DHT22;2514;53.524;10.166;2022-09-21T11:24:39;22.70;1.00
4993;DHT22;2514;53.524;10.166;2022-09-21T11:27:19;24.00;1.00
4993;DHT22;2514;53.524;10.166;2022-09-21T11:29:55;25.10;1.00
4993;DHT22;2514;53.524;10.166;2022-09-21T11:32:41;25.00;1.00
4993;DHT22;2514;53.524;10.166;2022-09-21T11:35:46;23.80;1.00
4993;DHT22;2514;53.524;10.166;2022-09-21T11:38:26;25.60;1.00
4993;DHT22;2514;53.524;10.166;2022-09-21T11:41:09;26.10;1.00
4993;DHT22;2514;53.524;10.166;2022-09-21T11:43:57;23.30;1.00
4993;DHT22;2514;53.524;10.166;2022-09-21T11:46:35;22.00;1.00
4993;DHT22;2514;53.524;10.166;2022-09-21T11:49:18;21.40;1.00
4993;DHT22;2514;53.524;10.166;2022-09-21T11:52:06;21.10;1.00
4993;DHT22;2514;53.524;10.166;2022-09-21T11:55:04;21.90;1.00
4993;DHT22;2514;53.524;10.166;2022-09-21T11:57:43;23.60;1.00
4993;DHT22;2514;53.524;10.166;2022-09-21T12:00:15;25.00;1.00
4993;DHT22;2514;53.524;10.166;2022-09-21T12:06:16;25.40;1.00
4993;DHT22;2514;53.524;10.166;2022-09-21T12:09:01;25.00;1.00
4993;DHT22;2514;53.524;10.166;2022-09-21T12:11:47;25.10;1.00
4993;DHT22;2514;53.524;10.166;2022-09-21T12:14:22;25.70;1.00
4993;DHT22;2514;53.524;10.166;2022-09-21T12:16:57;26.30;1.00
4993;DHT22;2514;53.524;10.166;2022-09-21T12:19:33;25.30;1.00
4993;DHT22;2514;53.524;10.166;2022-09-21T12:22:07;23.40;1.00
4993;DHT22;2514;53.524;10.166;2022-09-21T12:24:41;22.30;1.00
4993;DHT22;2514;53.524;10.166;2022-09-21T12:27:18;20.40;99.90
4993;DHT22;2514;53.524;10.166;2022-09-21T12:29:52;20.10;99.90
4993;DHT22;2514;53.524;10.166;2022-09-21T12:32:27;19.60;99.90
4993;DHT22;2514;53.524;10.166;2022-09-21T12:35:05;18.80;99.90
4993;DHT22;2514;53.524;10.166;2022-09-21T12:37:45;18.30;99.90
4993;DHT22;2514;53.524;10.166;2022-09-21T12:40:17;18.70;99.90
4993;DHT22;2514;53.524;10.166;2022-09-21T12:42:52;19.60;99.90
4993;DHT22;2514;53.524;10.166;2022-09-21T12:45:27;19.80;99.90
4993;DHT22;2514;53.524;10.166;2022-09-21T12:48:00;19.90;99.90
4993;DHT22;2514;53.524;10.166;2022-09-21T12:50:36;20.40;99.90
4993;DHT22;2514;53.524;10.166;2022-09-21T12:53:05;21.20;99.90
4993;DHT22;2514;53.524;10.166;2022-09-21T12:55:41;21.10;99.90
4993;DHT22;2514;53.524;10.166;2022-09-21T12:58:26;21.80;99.90
4993;DHT22;2514;53.524;10.166;2022-09-21T13:01:17;23.40;1.00
4993;DHT22;2514;53.524;10.166;2022-09-21T13:03:59;24.20;1.00
4993;DHT22;2514;53.524;10.166;2022-09-21T13:07:00;24.50;1.00
4993;DHT22;2514;53.524;10.166;2022-09-21T13:09:39;24.70;1.00
4993;DHT22;2514;53.524;10.166;2022-09-21T13:12:14;24.90;1.00
4993;DHT22;2514;53.524;10.166;2022-09-21T13:14:44;25.00;1.00
4993;DHT22;2514;53.524;10.166;2022-09-21T13:17:20;24.90;1.00
4993;DHT22;2514;53.524;10.166;2022-09-21T13:19:57;24.40;1.00
4993;DHT22;2514;53.524;10.166;2022-09-21T13:22:28;23.90;1.00
4993;DHT22;2514;53.524;10.166;2022-09-21T13:25:00;23.80;1.00
4993;DHT22;2514;53.524;10.166;2022-09-21T13:30:46;23.90;1.00
4993;DHT22;2514;53.524;10.166;2022-09-21T13:33:37;22.40;99.90
4993;DHT22;2514;53.524;10.166;2022-09-21T13:36:29;21.60;99.90
4993;DHT22;2514;53.524;10.166;2022-09-21T13:39:16;21.30;99.90
4993;DHT22;2514;53.524;10.166;2022-09-21T13:41:44;21.20;99.90
4993;DHT22;2514;53.524;10.166;2022-09-21T13:44:34;21.50;99.90
4993;DHT22;2514;53.524;10.166;2022-09-21T13:47:05;21.80;99.90
4993;DHT22;2514;53.524;10.166;2022-09-21T13:49:40;22.20;99.90
4993;DHT22;2514;53.524;10.166;2022-09-21T13:52:23;22.60;99.90
4993;DHT22;2514;53.524;10.166;2022-09-21T13:54:56;23.30;99.90
4993;DHT22;2514;53.524;10.166;2022-09-21T13:57:28;23.50;99.90
4993;DHT22;2514;53.524;10.166;2022-09-21T14:00:29;23.70;99.90
4993;DHT22;2514;53.524;10.166;2022-09-21T14:03:03;23.20;99.90
4993;DHT22;2514;53.524;10.166;2022-09-21T14:05:37;23.30;99.90
4993;DHT22;2514;53.524;10.166;2022-09-21T14:08:16;23.40;99.90
4993;DHT22;2514;53.524;10.166;2022-09-21T14:10:50;22.70;99.90
4993;DHT22;2514;53.524;10.166;2022-09-21T14:13:28;23.00;99.90
4993;DHT22;2514;53.524;10.166;2022-09-21T14:16:27;23.20;99.90
4993;DHT22;2514;53.524;10.166;2022-09-21T14:22:38;23.60;99.90
4993;DHT22;2514;53.524;10.166;2022-09-21T14:25:27;23.90;99.90
4993;DHT22;2514;53.524;10.166;2022-09-21T14:28:03;24.30;99.90
4993;DHT22;2514;53.524;10.166;2022-09-21T14:30:33;24.40;99.90
4993;DHT22;2514;53.524;10.166;2022-09-21T14:33:17;24.70;99.90
4993;DHT22;2514;53.524;10.166;2022-09-21T14:35:47;24.90;1.00
4993;DHT22;2514;53.524;10.166;2022-09-21T14:38:21;25.30;1.00
4993;DHT22;2514;53.524;10.166;2022-09-21T14:40:51;25.50;1.00
4993;DHT22;2514;53.524;10.166;2022-09-21T14:43:26;26.00;1.00
4993;DHT22;2514;53.524;10.166;2022-09-21T14:46:16;26.20;1.00
4993;DHT22;2514;53.524;10.166;2022-09-21T14:49:04;26.10;1.00
4993;DHT22;2514;53.524;10.166;2022-09-21T14:51:51;26.00;1.00
4993;DHT22;2514;53.524;10.166;2022-09-21T14:54:36;25.80;1.00
4993;DHT22;2514;53.524;10.166;2022-09-21T14:57:25;25.50;1.00
4993;DHT22;2514;53.524;10.166;2022-09-21T15:00:16;25.20;99.90
4993;DHT22;2514;53.524;10.166;2022-09-21T15:02:53;24.70;99.90
4993;DHT22;2514;53.524;10.166;2022-09-21T15:05:34;24.50;99.90
4993;DHT22;2514;53.524;10.166;2022-09-21T15:08:18;24.60;99.90
4993;DHT22;2514;53.524;10.166;2022-09-21T15:11:13;24.40;99.90
4993;DHT22;2514;53.524;10.166;2022-09-21T15:14:12;24.60;99.90
4993;DHT22;2514;53.524;10.166;2022-09-21T15:16:43;24.80;99.90
4993;DHT22;2514;53.524;10.166;2022-09-21T15:19:21;24.30;99.90
4993;DHT22;2514;53.524;10.166;2022-09-21T15:21:53;23.70;99.90
4993;DHT22;2514;53.524;10.166;2022-09-21T15:24:24;22.90;99.90
4993;DHT22;2514;53.524;10.166;2022-09-21T15:27:00;22.30;99.90
4993;DHT22;2514;53.524;10.166;2022-09-21T15:29:30;22.40;99.90
4993;DHT22;2514;53.524;10.166;2022-09-21T15:31:58;22.50;99.90
4993;DHT22;2514;53.524;10.166;2022-09-21T15:34:26;23.00;99.90
4993;DHT22;2514;53.524;10.166;2022-09-21T15:37:05;22.60;99.90
4993;DHT22;2514;53.524;10.166;2022-09-21T15:39:33;22.00;99.90
4993;DHT22;2514;53.524;10.166;2022-09-21T15:42:15;21.60;99.90
4993;DHT22;2514;53.524;10.166;2022-09-21T15:44:45;21.10;53.50
4993;DHT22;2514;53.524;10.166;2022-09-21T15:47:17;20.90;14.50
4993;DHT22;2514;53.524;10.166;2022-09-21T15:49:46;20.60;1.70
4993;DHT22;2514;53.524;10.166;2022-09-21T15:52:21;20.80;23.40
4993;DHT22;2514;53.524;10.166;2022-09-21T15:54:56;21.20;74.70
4993;DHT22;2514;53.524;10.166;2022-09-21T15:57:33;21.40;91.80
4993;DHT22;2514;53.524;10.166;2022-09-21T16:00:05;21.60;92.30
4993;DHT22;2514;53.524;10.166;2022-09-21T16:02:36;21.70;96.30
4993;DHT22;2514;53.524;10.166;2022-09-21T16:05:06;22.00;99.90
4993;DHT22;2514;53.524;10.166;2022-09-21T16:07:36;22.30;99.90
4993;DHT22;2514;53.524;10.166;2022-09-21T16:10:33;22.70;99.90
4993;DHT22;2514;53.524;10.166;2022-09-21T16:13:04;22.60;99.90
4993;DHT22;2514;53.524;10.166;2022-09-21T16:16:02;22.80;99.90
4993;DHT22;2514;53.524;10.166;2022-09-21T16:18:32;22.60;99.90
4993;DHT22;2514;53.524;10.166;2022-09-21T16:21:20;22.30;99.90
4993;DHT22;2514;53.524;10.166;2022-09-21T16:23:52;21.80;50.10
4993;DHT22;2514;53.524;10.166;2022-09-21T16:26:23;21.40;1.00
4993;DHT22;2514;53.524;10.166;2022-09-21T16:28:58;21.20;1.00
4993;DHT22;2514;53.524;10.166;2022-09-21T16:31:42;21.00;1.00
4993;DHT22;2514;53.524;10.166;2022-09-21T16:34:22;20.80;1.00
4993;DHT22;2514;53.524;10.166;2022-09-21T16:37:02;20.70;1.00
4993;DHT22;2514;53.524;10.166;2022-09-21T16:39:51;20.50;1.00
4993;DHT22;2514;53.524;10.166;2022-09-21T16:42:18;20.20;1.00
4993;DHT22;2514;53.524;10.166;2022-09-21T16:44:46;19.90;1.00
4993;DHT22;2514;53.524;10.166;2022-09-21T16:47:15;19.70;1.00
4993;DHT22;2514;53.524;10.166;2022-09-21T16:49:50;19.40;1.00
4993;DHT22;2514;53.524;10.166;2022-09-21T16:52:19;19.30;1.00